Time;durP1;ratioP1;P1;durP2;ratioP2;P2;SDS_P1;SDS_P2;PMS_P1;PMS_P2;Temp;Humidity;BMP_temperature;BMP_pressure;BME280_temperature;BME280_humidity;BME280_pressure;Samples;Min_cycle;Max_cycle;Signal;HPM_P1;HPM_P2
2021/12/15 00:01:34;;;;;;;40.53;23.00;;;;;;;;;;5072957;28;20435;-70
2021/12/15 00:04:00;;;;;;;43.10;22.38;;;;;;;;;;5073356;28;20490;-70
2021/12/15 00:06:26;;;;;;;39.97;21.65;;;;;;;;;;5074437;28;20066;-69
2021/12/15 00:08:54;;;;;;;38.60;20.80;;;;;;;;;;5073004;28;20449;-69
2021/12/15 00:11:21;;;;;;;39.28;19.90;;;;;;;;;;5074447;28;20092;-70
2021/12/15 00:13:48;;;;;;;39.92;21.73;;;;;;;;;;5073018;28;20392;-71
2021/12/15 00:16:15;;;;;;;39.08;21.15;;;;;;;;;;5073316;28;20035;-70
2021/12/15 00:18:42;;;;;;;36.90;20.67;;;;;;;;;;5074680;28;20017;-70
2021/12/15 00:21:09;;;;;;;37.58;19.90;;;;;;;;;;5074225;28;20099;-70
2021/12/15 00:23:36;;;;;;;35.13;19.75;;;;;;;;;;5071889;28;20029;-71
2021/12/15 00:26:03;;;;;;;33.38;19.25;;;;;;;;;;5073588;28;20021;-72
2021/12/15 00:28:29;;;;;;;33.38;18.80;;;;;;;;;;5073805;28;20024;-71
2021/12/15 00:30:55;;;;;;;32.38;18.45;;;;;;;;;;5073871;28;20021;-69
2021/12/15 00:33:21;;;;;;;35.05;19.10;;;;;;;;;;5072848;28;20035;-70
2021/12/15 00:35:47;;;;;;;42.85;20.15;;;;;;;;;;5072210;28;20021;-70
2021/12/15 00:38:14;;;;;;;33.80;19.17;;;;;;;;;;5073591;28;20024;-72
2021/12/15 00:40:40;;;;;;;31.80;18.50;;;;;;;;;;5073630;28;20462;-70
2021/12/15 00:43:06;;;;;;;31.65;17.63;;;;;;;;;;5071656;28;20028;-70
2021/12/15 00:45:32;;;;;;;31.10;17.85;;;;;;;;;;5073554;28;20394;-70
2021/12/15 00:47:58;;;;;;;30.92;17.88;;;;;;;;;;5073022;28;20036;-70
2021/12/15 00:50:26;;;;;;;30.08;17.52;;;;;;;;;;5072313;28;20024;-70
2021/12/15 00:52:52;;;;;;;31.98;18.65;;;;;;;;;;5072765;28;20063;-70
2021/12/15 00:55:20;;;;;;;35.60;19.55;;;;;;;;;;5073216;28;20036;-70
2021/12/15 00:57:46;;;;;;;29.67;18.38;;;;;;;;;;5073120;28;20410;-70
2021/12/15 01:00:15;;;;;;;34.42;18.55;;;;;;;;;;5071223;28;20032;-69
2021/12/15 01:02:41;;;;;;;33.92;18.13;;;;;;;;;;5072496;28;20378;-69
2021/12/15 01:05:08;;;;;;;27.33;16.73;;;;;;;;;;5071343;28;20021;-70
2021/12/15 01:07:34;;;;;;;27.45;15.40;;;;;;;;;;5073026;28;20016;-70
2021/12/15 01:10:00;;;;;;;26.25;16.48;;;;;;;;;;5072693;28;20024;-70
2021/12/15 01:20:45;;;;;;;26.55;14.85;;;;;;;;;;5072806;28;20047;-70
2021/12/15 01:23:14;;;;;;;26.48;15.15;;;;;;;;;;5071952;28;20028;-69
2021/12/15 01:25:41;;;;;;;28.52;15.70;;;;;;;;;;5071256;28;20032;-70
2021/12/15 01:28:07;;;;;;;29.65;16.00;;;;;;;;;;5072535;28;20433;-70
2021/12/15 01:30:35;;;;;;;26.83;14.43;;;;;;;;;;5072715;28;20020;-69
2021/12/15 01:33:01;;;;;;;24.13;13.88;;;;;;;;;;5068654;28;20056;-68
2021/12/15 01:35:28;;;;;;;25.90;15.27;;;;;;;;;;5072495;28;20461;-69
2021/12/15 01:37:55;;;;;;;26.75;14.70;;;;;;;;;;5072098;28;20433;-70
2021/12/15 01:40:36;;;;;;;30.00;16.40;;;;;;;;;;5072497;28;20020;-69
2021/12/15 01:43:04;;;;;;;17.70;10.25;;;;;;;;;;5070639;28;20024;-69
2021/12/15 01:48:15;;;;;;;24.65;14.82;;;;;;;;;;5057225;28;20030;-69
2021/12/15 01:50:43;;;;;;;23.13;13.75;;;;;;;;;;5072277;28;20481;-71
2021/12/15 01:53:09;;;;;;;26.98;14.30;;;;;;;;;;5069989;28;20568;-69
2021/12/15 01:55:36;;;;;;;28.00;15.38;;;;;;;;;;5072029;28;20028;-69
2021/12/15 01:58:02;;;;;;;25.83;14.57;;;;;;;;;;5072731;28;20408;-71
2021/12/15 02:00:30;;;;;;;23.00;13.98;;;;;;;;;;5072069;28;20099;-69
2021/12/15 02:02:57;;;;;;;25.70;14.75;;;;;;;;;;5071198;28;20032;-69
2021/12/15 02:05:28;;;;;;;22.45;14.52;;;;;;;;;;5071832;28;20025;-70
2021/12/15 02:07:55;;;;;;;23.45;14.25;;;;;;;;;;5071807;28;20025;-70
2021/12/15 02:10:26;;;;;;;23.63;13.77;;;;;;;;;;5072475;28;20012;-70
2021/12/15 02:12:52;;;;;;;21.38;13.90;;;;;;;;;;5072446;28;20110;-70
2021/12/15 02:15:19;;;;;;;21.15;13.23;;;;;;;;;;5071765;28;20040;-70
2021/12/15 02:17:47;;;;;;;23.25;13.27;;;;;;;;;;5071943;28;20110;-70
2021/12/15 02:20:16;;;;;;;23.20;13.32;;;;;;;;;;5071485;28;20146;-70
2021/12/15 02:22:43;;;;;;;24.30;13.80;;;;;;;;;;5071269;28;20112;-69
2021/12/15 02:25:11;;;;;;;25.52;13.50;;;;;;;;;;5071237;28;20066;-70
2021/12/15 02:27:38;;;;;;;18.95;12.15;;;;;;;;;;5071532;28;20363;-70
2021/12/15 02:30:37;;;;;;;20.95;12.30;;;;;;;;;;5054881;28;20350;-70
2021/12/15 02:33:41;;;;;;;18.88;11.80;;;;;;;;;;5061061;28;20024;-69
2021/12/15 02:38:45;;;;;;;18.50;12.07;;;;;;;;;;5071455;28;20199;-70
2021/12/15 02:41:19;;;;;;;18.83;11.93;;;;;;;;;;5071408;28;20470;-69
2021/12/15 02:43:49;;;;;;;19.08;10.73;;;;;;;;;;5068977;28;20024;-69
2021/12/15 02:46:15;;;;;;;22.15;11.88;;;;;;;;;;5071141;28;20113;-70
2021/12/15 02:48:41;;;;;;;18.75;11.60;;;;;;;;;;5071469;28;20021;-70
2021/12/15 02:51:08;;;;;;;19.10;11.85;;;;;;;;;;5070261;28;20066;-70
2021/12/15 02:53:34;;;;;;;19.95;11.75;;;;;;;;;;5070758;28;20389;-70
2021/12/15 02:56:00;;;;;;;20.63;10.75;;;;;;;;;;5070690;28;20017;-70
2021/12/15 02:58:32;;;;;;;19.88;12.27;;;;;;;;;;5072095;28;20028;-70
2021/12/15 03:01:08;;;;;;;18.95;11.63;;;;;;;;;;5072102;28;20017;-70
2021/12/15 03:06:14;;;;;;;16.77;10.40;;;;;;;;;;5055065;28;20029;-70
2021/12/15 03:09:09;;;;;;;16.60;10.57;;;;;;;;;;5071685;28;20048;-70
2021/12/15 03:17:04;;;;;;;18.52;11.23;;;;;;;;;;5091307;22;20059;-68
2021/12/15 03:19:30;;;;;;;16.95;10.20;;;;;;;;;;5070971;28;20425;-68
2021/12/15 03:21:56;;;;;;;17.58;10.85;;;;;;;;;;5070610;28;20021;-68
2021/12/15 03:24:24;;;;;;;18.55;11.75;;;;;;;;;;5070221;28;20025;-68
2021/12/15 03:26:59;;;;;;;17.85;11.68;;;;;;;;;;5072110;28;20052;-68
2021/12/15 03:35:04;;;;;;;19.85;11.27;;;;;;;;;;5073958;28;20040;-69
2021/12/15 03:37:31;;;;;;;16.98;9.05;;;;;;;;;;5074750;28;20035;-69
2021/12/15 03:39:57;;;;;;;15.43;9.32;;;;;;;;;;5074434;28;20021;-68
2021/12/15 03:42:29;;;;;;;17.30;10.27;;;;;;;;;;5074535;28;20096;-69
2021/12/15 03:44:56;;;;;;;17.95;10.60;;;;;;;;;;5074023;28;20032;-69
2021/12/15 03:47:24;;;;;;;13.35;7.95;;;;;;;;;;5073425;28;20115;-69
2021/12/15 03:49:51;;;;;;;15.05;9.05;;;;;;;;;;5074577;28;20103;-69
2021/12/15 03:52:17;;;;;;;14.00;8.05;;;;;;;;;;5074335;28;20055;-69
2021/12/15 03:54:44;;;;;;;13.00;8.27;;;;;;;;;;5073504;28;20116;-69
2021/12/15 03:57:10;;;;;;;9.48;6.45;;;;;;;;;;5074038;28;20055;-69
2021/12/15 03:59:41;;;;;;;11.02;6.88;;;;;;;;;;5074196;28;20021;-69
2021/12/15 04:02:07;;;;;;;11.85;7.63;;;;;;;;;;5058145;28;20032;-69
2021/12/15 04:04:33;;;;;;;12.90;7.15;;;;;;;;;;5072225;28;20112;-69
2021/12/15 04:06:59;;;;;;;11.23;6.30;;;;;;;;;;5074136;28;20035;-69
2021/12/15 04:09:25;;;;;;;12.27;7.10;;;;;;;;;;5074118;28;20028;-69
2021/12/15 04:11:54;;;;;;;9.20;6.32;;;;;;;;;;5073655;28;20028;-69
2021/12/15 04:14:23;;;;;;;19.20;10.30;;;;;;;;;;5073060;28;20036;-69
2021/12/15 04:17:02;;;;;;;11.02;6.82;;;;;;;;;;5072195;28;20121;-70
2021/12/15 04:19:28;;;;;;;11.63;6.95;;;;;;;;;;5073913;28;20099;-69
2021/12/15 04:21:54;;;;;;;9.40;6.25;;;;;;;;;;5073690;28;20425;-70
2021/12/15 04:24:23;;;;;;;9.55;6.72;;;;;;;;;;5072884;28;20082;-69
2021/12/15 04:26:50;;;;;;;10.55;7.43;;;;;;;;;;5072238;28;20157;-70
2021/12/15 04:29:16;;;;;;;11.52;7.38;;;;;;;;;;5073612;28;20032;-70
2021/12/15 04:31:46;;;;;;;12.23;7.53;;;;;;;;;;5072178;28;20024;-70
2021/12/15 04:34:12;;;;;;;9.70;6.47;;;;;;;;;;5073208;28;20533;-70
2021/12/15 04:36:41;;;;;;;12.60;7.65;;;;;;;;;;5072932;28;20044;-70
2021/12/15 04:39:08;;;;;;;11.02;7.43;;;;;;;;;;5072748;28;20017;-69
2021/12/15 04:41:34;;;;;;;12.25;7.57;;;;;;;;;;5073423;28;20039;-67
2021/12/15 04:44:03;;;;;;;12.63;7.90;;;;;;;;;;5071393;28;20020;-70
2021/12/15 04:46:31;;;;;;;10.23;6.85;;;;;;;;;;5073464;28;20374;-69
2021/12/15 04:48:57;;;;;;;10.93;6.35;;;;;;;;;;5073375;28;20052;-69
2021/12/15 04:51:23;;;;;;;12.02;6.95;;;;;;;;;;5073273;28;20082;-70
2021/12/15 04:53:50;;;;;;;14.48;8.50;;;;;;;;;;5072352;28;20056;-69
2021/12/15 04:56:16;;;;;;;10.98;6.80;;;;;;;;;;5071805;28;20016;-68
2021/12/15 04:58:42;;;;;;;10.27;6.88;;;;;;;;;;5073129;28;20066;-69
2021/12/15 05:01:09;;;;;;;11.18;6.53;;;;;;;;;;5073803;28;20021;-69
2021/12/15 05:03:36;;;;;;;16.20;8.65;;;;;;;;;;5072736;28;20119;-69
2021/12/15 05:06:02;;;;;;;12.27;7.43;;;;;;;;;;5073017;28;20067;-69
2021/12/15 05:08:28;;;;;;;12.57;7.97;;;;;;;;;;5073217;28;20021;-69
2021/12/15 05:10:56;;;;;;;18.40;10.68;;;;;;;;;;5073085;28;20025;-70
2021/12/15 05:13:22;;;;;;;13.98;8.73;;;;;;;;;;5072176;28;20036;-69
2021/12/15 05:15:49;;;;;;;14.40;8.90;;;;;;;;;;5072630;28;20092;-68
2021/12/15 05:18:15;;;;;;;14.23;8.20;;;;;;;;;;5072694;28;20056;-69
2021/12/15 05:20:46;;;;;;;17.52;10.93;;;;;;;;;;5072663;28;20471;-70
2021/12/15 05:23:14;;;;;;;12.00;8.10;;;;;;;;;;5072286;28;20510;-69
2021/12/15 05:25:40;;;;;;;16.73;10.20;;;;;;;;;;5071288;28;20036;-69
2021/12/15 05:28:06;;;;;;;12.93;9.00;;;;;;;;;;5072821;28;20020;-69
2021/12/15 05:30:33;;;;;;;10.40;7.07;;;;;;;;;;5072123;28;20024;-69
2021/12/15 05:32:59;;;;;;;13.15;8.93;;;;;;;;;;5062987;28;20605;-69
2021/12/15 05:35:25;;;;;;;13.43;9.07;;;;;;;;;;5072197;28;20052;-71
2021/12/15 05:37:56;;;;;;;11.80;8.35;;;;;;;;;;5071713;28;20025;-70
2021/12/15 05:40:23;;;;;;;18.30;10.75;;;;;;;;;;5072332;28;20027;-70
2021/12/15 05:42:49;;;;;;;15.05;9.65;;;;;;;;;;5070236;28;20056;-69
2021/12/15 05:45:15;;;;;;;14.45;9.32;;;;;;;;;;5072004;28;20056;-69
2021/12/15 05:47:41;;;;;;;16.20;9.85;;;;;;;;;;5072005;28;20178;-70
2021/12/15 05:50:10;;;;;;;15.40;9.68;;;;;;;;;;5071616;28;20115;-69
2021/12/15 05:52:36;;;;;;;14.85;9.13;;;;;;;;;;5072456;28;20024;-69
2021/12/15 05:55:02;;;;;;;14.82;9.45;;;;;;;;;;5071302;28;20047;-69
2021/12/15 05:57:28;;;;;;;13.27;8.88;;;;;;;;;;5071734;28;20016;-70
2021/12/15 05:59:54;;;;;;;14.75;9.18;;;;;;;;;;5071329;28;20048;-69
2021/12/15 06:02:20;;;;;;;17.38;9.50;;;;;;;;;;5071687;28;20020;-69
2021/12/15 06:04:46;;;;;;;12.43;8.10;;;;;;;;;;5071230;28;20031;-69
2021/12/15 06:07:12;;;;;;;13.70;8.30;;;;;;;;;;5070061;28;20126;-70
2021/12/15 06:09:38;;;;;;;12.07;8.30;;;;;;;;;;5070283;28;20031;-70
2021/12/15 06:12:05;;;;;;;13.48;8.50;;;;;;;;;;5071219;28;20031;-69
2021/12/15 06:14:31;;;;;;;13.30;8.60;;;;;;;;;;5069232;28;20071;-69
2021/12/15 06:17:11;;;;;;;11.90;8.00;;;;;;;;;;5070745;28;20039;-69
2021/12/15 06:19:37;;;;;;;15.65;9.43;;;;;;;;;;5071385;28;20020;-70
2021/12/15 06:22:04;;;;;;;17.10;10.30;;;;;;;;;;5054599;28;20100;-70
2021/12/15 06:24:30;;;;;;;13.80;8.60;;;;;;;;;;5070494;28;20382;-70
2021/12/15 06:27:03;;;;;;;15.30;9.40;;;;;;;;;;5070979;28;20035;-70
2021/12/15 06:29:29;;;;;;;18.17;10.57;;;;;;;;;;5071350;28;20040;-69
2021/12/15 06:31:55;;;;;;;13.02;9.40;;;;;;;;;;5070809;28;20027;-70
2021/12/15 06:34:22;;;;;;;16.45;9.38;;;;;;;;;;5070115;28;20547;-69
2021/12/15 06:36:48;;;;;;;13.55;9.32;;;;;;;;;;5070909;28;20037;-69
2021/12/15 06:39:14;;;;;;;15.93;9.50;;;;;;;;;;5070961;28;20378;-69
2021/12/15 06:41:40;;;;;;;14.40;9.43;;;;;;;;;;5071021;28;20043;-68
2021/12/15 06:44:06;;;;;;;11.85;8.15;;;;;;;;;;5070128;28;20029;-68
2021/12/15 06:58:15;;;;;;;14.65;8.68;;;;;;;;;;5070820;28;20036;-69
2021/12/15 07:00:22;;;;;;;10.65;7.03;;;;;;;;;;5049914;28;20020;-69
2021/12/15 07:02:48;;;;;;;10.90;7.25;;;;;;;;;;5070404;28;20173;-68
2021/12/15 07:05:15;;;;;;;10.57;7.28;;;;;;;;;;5070673;28;20557;-69
2021/12/15 07:07:42;;;;;;;11.88;7.90;;;;;;;;;;5069457;28;20035;-69
2021/12/15 07:10:09;;;;;;;12.35;7.30;;;;;;;;;;5069504;28;20016;-69
2021/12/15 07:12:35;;;;;;;10.38;6.95;;;;;;;;;;5070816;28;20099;-68
2021/12/15 07:15:01;;;;;;;11.00;7.20;;;;;;;;;;5069980;28;20032;-68
2021/12/15 07:17:28;;;;;;;13.30;7.88;;;;;;;;;;5070399;28;20134;-69
2021/12/15 07:25:08;;;;;;;;;;;;;;;;;;5070814;28;20028;-69
2021/12/15 07:27:34;;;;;;;10.13;6.70;;;;;;;;;;5069197;28;19962;-69
2021/12/15 07:30:00;;;;;;;11.10;6.68;;;;;;;;;;5070362;28;20028;-69
2021/12/15 07:32:26;;;;;;;10.90;7.05;;;;;;;;;;5061354;28;20024;-70
2021/12/15 07:34:52;;;;;;;12.07;7.88;;;;;;;;;;5070050;28;20094;-69
2021/12/15 07:37:18;;;;;;;9.00;5.85;;;;;;;;;;5068935;28;20021;-69
2021/12/15 07:39:54;;;;;;;9.52;6.93;;;;;;;;;;5068703;28;20029;-70
2021/12/15 07:42:30;;;;;;;8.52;6.05;;;;;;;;;;5070292;28;20028;-69
2021/12/15 07:44:56;;;;;;;10.50;6.53;;;;;;;;;;5069913;28;20031;-69
2021/12/15 07:47:22;;;;;;;10.45;5.93;;;;;;;;;;5070089;28;20436;-71
2021/12/15 07:49:48;;;;;;;9.63;6.60;;;;;;;;;;5070357;28;20104;-69
2021/12/15 07:52:14;;;;;;;8.68;5.97;;;;;;;;;;5070560;28;20117;-69
2021/12/15 07:54:40;;;;;;;9.52;6.28;;;;;;;;;;5069720;28;20031;-69
2021/12/15 07:57:08;;;;;;;9.40;6.15;;;;;;;;;;5068575;28;20016;-68
2021/12/15 07:59:34;;;;;;;9.07;5.43;;;;;;;;;;5069095;28;20028;-69
2021/12/15 08:02:00;;;;;;;13.30;6.57;;;;;;;;;;5070043;28;20025;-69
2021/12/15 08:04:26;;;;;;;13.45;6.35;;;;;;;;;;5069812;28;20077;-69
2021/12/15 08:06:52;;;;;;;9.02;6.18;;;;;;;;;;5070289;28;20083;-69
2021/12/15 08:09:20;;;;;;;10.02;6.53;;;;;;;;;;5069890;28;20028;-69
2021/12/15 08:11:49;;;;;;;10.77;6.70;;;;;;;;;;5070514;28;20033;-69
2021/12/15 08:14:15;;;;;;;9.27;5.53;;;;;;;;;;5072168;28;20081;-69
2021/12/15 08:16:42;;;;;;;10.07;5.18;;;;;;;;;;5073753;28;20028;-69
2021/12/15 08:19:08;;;;;;;9.88;6.10;;;;;;;;;;5073638;28;20050;-69
2021/12/15 08:21:34;;;;;;;8.73;4.80;;;;;;;;;;5073859;28;20058;-69
2021/12/15 08:24:01;;;;;;;8.13;5.47;;;;;;;;;;5072538;28;20028;-72
2021/12/15 08:26:27;;;;;;;8.75;5.90;;;;;;;;;;5073666;28;20500;-68
2021/12/15 08:28:53;;;;;;;10.60;6.03;;;;;;;;;;5073155;28;20488;-68
2021/12/15 08:31:19;;;;;;;7.55;5.43;;;;;;;;;;5073508;28;20031;-68
2021/12/15 08:33:45;;;;;;;8.07;5.35;;;;;;;;;;5072663;28;20017;-67
2021/12/15 08:36:13;;;;;;;9.20;5.72;;;;;;;;;;5072745;28;20134;-69
2021/12/15 08:38:40;;;;;;;8.25;5.82;;;;;;;;;;5073546;28;20040;-68
2021/12/15 08:41:11;;;;;;;9.43;5.70;;;;;;;;;;5073218;28;20052;-69
2021/12/15 08:43:38;;;;;;;9.48;5.22;;;;;;;;;;5072494;28;20487;-69
2021/12/15 08:46:09;;;;;;;8.02;5.43;;;;;;;;;;5056786;28;20025;-71
2021/12/15 08:48:35;;;;;;;10.88;5.70;;;;;;;;;;5067519;28;20390;-72
2021/12/15 08:51:02;;;;;;;8.05;5.53;;;;;;;;;;5064665;28;20093;-73
2021/12/15 08:53:28;;;;;;;8.38;5.68;;;;;;;;;;5086899;28;20034;-73
2021/12/15 08:55:54;;;;;;;7.38;5.03;;;;;;;;;;5073249;28;20024;-72
2021/12/15 08:58:22;;;;;;;8.15;5.68;;;;;;;;;;5073267;28;20020;-72
2021/12/15 09:00:50;;;;;;;7.75;4.90;;;;;;;;;;5073618;28;20021;-73
2021/12/15 09:03:17;;;;;;;7.35;5.13;;;;;;;;;;5072726;28;20071;-72
2021/12/15 09:05:44;;;;;;;8.38;5.07;;;;;;;;;;5072028;28;20028;-73
2021/12/15 09:08:11;;;;;;;8.02;5.32;;;;;;;;;;5069787;28;20025;-72
2021/12/15 09:10:39;;;;;;;8.77;5.30;;;;;;;;;;5068580;28;20035;-73
2021/12/15 09:13:05;;;;;;;7.40;4.88;;;;;;;;;;5064144;28;20032;-70
2021/12/15 09:15:31;;;;;;;6.88;4.22;;;;;;;;;;5072246;28;20111;-70
2021/12/15 09:17:57;;;;;;;6.63;4.80;;;;;;;;;;5081723;22;20065;-68
2021/12/15 09:20:25;;;;;;;7.25;5.00;;;;;;;;;;5072883;28;20036;-69
2021/12/15 09:22:51;;;;;;;7.45;5.00;;;;;;;;;;5072192;28;20081;-69
2021/12/15 09:25:18;;;;;;;6.82;4.53;;;;;;;;;;5072217;28;20508;-69
2021/12/15 09:27:45;;;;;;;6.90;5.00;;;;;;;;;;5072491;28;20031;-68
2021/12/15 09:30:13;;;;;;;8.02;5.22;;;;;;;;;;5072651;28;20016;-68
2021/12/15 09:32:39;;;;;;;7.30;5.38;;;;;;;;;;5071001;28;20031;-68
2021/12/15 09:35:06;;;;;;;7.57;4.78;;;;;;;;;;5071959;28;20024;-68
2021/12/15 09:37:33;;;;;;;7.55;4.65;;;;;;;;;;5070944;28;20021;-68
2021/12/15 09:39:59;;;;;;;9.63;5.32;;;;;;;;;;5070853;28;20021;-69
2021/12/15 09:42:33;;;;;;;8.75;5.30;;;;;;;;;;5072202;28;20048;-68
2021/12/15 09:45:14;;;;;;;10.75;6.00;;;;;;;;;;5070258;28;20029;-69
2021/12/15 09:48:06;;;;;;;6.80;4.60;;;;;;;;;;5072277;28;20032;-67
2021/12/15 10:17:53;;;;;;;8.20;5.05;;;;;;;;;;5071398;28;20456;-68
2021/12/15 10:20:22;;;;;;;7.60;5.03;;;;;;;;;;5072043;28;20025;-67
2021/12/15 10:22:51;;;;;;;6.43;4.68;;;;;;;;;;5070878;28;20372;-69
2021/12/15 10:25:20;;;;;;;6.30;4.65;;;;;;;;;;5071484;28;20043;-68
2021/12/15 10:27:54;;;;;;;9.43;4.72;;;;;;;;;;5071604;28;20051;-68
2021/12/15 10:30:26;;;;;;;6.85;4.63;;;;;;;;;;5071603;28;20021;-69
2021/12/15 10:32:55;;;;;;;7.20;4.57;;;;;;;;;;5061356;28;20024;-68
2021/12/15 10:35:23;;;;;;;9.00;5.22;;;;;;;;;;5071285;28;20020;-69
2021/12/15 10:38:08;;;;;;;7.45;4.60;;;;;;;;;;5071312;28;20016;-70
2021/12/15 10:40:39;;;;;;;6.03;4.30;;;;;;;;;;5071713;28;20051;-70
2021/12/15 10:43:05;;;;;;;7.15;4.22;;;;;;;;;;5070819;28;20031;-69
2021/12/15 10:45:39;;;;;;;6.55;4.43;;;;;;;;;;5071548;28;20050;-69
2021/12/15 10:48:15;;;;;;;5.95;4.22;;;;;;;;;;5054733;28;20016;-69
2021/12/15 10:50:42;;;;;;;6.95;4.00;;;;;;;;;;5071398;28;20025;-69
2021/12/15 10:53:08;;;;;;;6.00;4.45;;;;;;;;;;5070166;28;20043;-68
2021/12/15 10:55:36;;;;;;;8.27;4.85;;;;;;;;;;5071173;28;20021;-68
2021/12/15 10:58:03;;;;;;;5.97;4.38;;;;;;;;;;5070713;28;20107;-69
2021/12/15 11:00:34;;;;;;;7.85;4.22;;;;;;;;;;5071191;28;20034;-69
2021/12/15 11:03:14;;;;;;;7.63;4.55;;;;;;;;;;5070471;28;20548;-68
2021/12/15 11:05:40;;;;;;;7.30;4.65;;;;;;;;;;5071079;28;20569;-69
2021/12/15 11:08:06;;;;;;;7.68;4.72;;;;;;;;;;5070737;28;20017;-68
2021/12/15 11:10:34;;;;;;;5.45;3.95;;;;;;;;;;5071005;28;20021;-68
2021/12/15 11:13:07;;;;;;;8.30;4.35;;;;;;;;;;5070596;28;20033;-68
2021/12/15 11:15:41;;;;;;;11.07;4.78;;;;;;;;;;5071399;28;20386;-68
2021/12/15 11:18:15;;;;;;;6.25;4.40;;;;;;;;;;5054999;28;20048;-69
2021/12/15 11:20:42;;;;;;;6.95;4.63;;;;;;;;;;5071258;28;20019;-68
2021/12/15 11:23:15;;;;;;;6.68;4.90;;;;;;;;;;5070151;28;20016;-68
2021/12/15 11:25:53;;;;;;;6.32;4.20;;;;;;;;;;5070895;28;20066;-68
2021/12/15 11:28:19;;;;;;;8.18;4.88;;;;;;;;;;5070799;28;20017;-68
2021/12/15 11:30:45;;;;;;;9.23;5.05;;;;;;;;;;5070983;28;20425;-68
2021/12/15 11:33:14;;;;;;;7.35;5.00;;;;;;;;;;5070277;28;20035;-67
2021/12/15 11:35:50;;;;;;;6.60;4.63;;;;;;;;;;5070683;28;20024;-68
2021/12/15 11:38:19;;;;;;;8.23;5.53;;;;;;;;;;5070628;28;20112;-69
2021/12/15 11:40:47;;;;;;;9.57;4.53;;;;;;;;;;5069729;28;20016;-67
2021/12/15 11:43:30;;;;;;;7.97;4.53;;;;;;;;;;5070347;28;20024;-67
2021/12/15 11:45:56;;;;;;;6.85;5.00;;;;;;;;;;5069160;28;20111;-68
2021/12/15 11:48:27;;;;;;;6.53;4.28;;;;;;;;;;5074017;28;20020;-68
2021/12/15 11:50:59;;;;;;;6.28;4.85;;;;;;;;;;5074554;28;20103;-68
2021/12/15 11:53:37;;;;;;;6.97;4.63;;;;;;;;;;5073818;28;20070;-67
2021/12/15 11:56:18;;;;;;;8.32;4.88;;;;;;;;;;5072715;28;20021;-69
2021/12/15 11:58:44;;;;;;;;;;;;;;;;;;5074822;28;20024;-69
2021/12/15 12:01:10;;;;;;;7.60;5.18;;;;;;;;;;5074768;28;19904;-68
2021/12/15 12:03:37;;;;;;;7.55;4.50;;;;;;;;;;5073486;28;20660;-68
2021/12/15 12:06:04;;;;;;;7.90;4.97;;;;;;;;;;5057593;28;20098;-68
2021/12/15 12:08:30;;;;;;;5.45;4.38;;;;;;;;;;5073953;28;20016;-69
2021/12/15 12:11:04;;;;;;;7.13;5.00;;;;;;;;;;5074216;28;20506;-69
2021/12/15 12:13:37;;;;;;;6.85;5.18;;;;;;;;;;5073489;28;20029;-69
2021/12/15 12:16:04;;;;;;;7.18;5.05;;;;;;;;;;5057039;28;20017;-71
2021/12/15 12:18:32;;;;;;;7.60;5.65;;;;;;;;;;5073919;28;20478;-69
2021/12/15 12:21:02;;;;;;;8.30;5.80;;;;;;;;;;5073924;28;20474;-69
2021/12/15 12:23:29;;;;;;;9.63;5.47;;;;;;;;;;5072489;28;20074;-71
2021/12/15 12:25:57;;;;;;;8.23;5.95;;;;;;;;;;5072986;28;20641;-71
2021/12/15 12:28:26;;;;;;;7.85;6.00;;;;;;;;;;5073499;28;20098;-71
2021/12/15 12:30:54;;;;;;;7.03;5.30;;;;;;;;;;5074211;28;20020;-72
2021/12/15 12:33:21;;;;;;;7.93;5.45;;;;;;;;;;5072090;28;20051;-71
2021/12/15 12:35:51;;;;;;;8.68;5.95;;;;;;;;;;5074017;28;20020;-70
2021/12/15 12:38:19;;;;;;;9.70;6.10;;;;;;;;;;5074219;28;20414;-70
2021/12/15 12:40:48;;;;;;;8.68;6.32;;;;;;;;;;5074107;28;20150;-71
2021/12/15 12:43:18;;;;;;;7.55;5.88;;;;;;;;;;5073553;28;20020;-70
2021/12/15 12:45:52;;;;;;;9.80;6.23;;;;;;;;;;5073821;28;20499;-71
2021/12/15 12:48:34;;;;;;;12.85;6.47;;;;;;;;;;5074023;28;20490;-71
2021/12/15 12:59:38;;;;;;;10.05;5.95;;;;;;;;;;5072234;28;20078;-71
2021/12/15 13:02:10;;;;;;;8.23;6.38;;;;;;;;;;5073862;28;20116;-70
2021/12/15 13:04:39;;;;;;;9.48;6.40;;;;;;;;;;5072856;28;20035;-71
2021/12/15 13:07:05;;;;;;;12.35;6.53;;;;;;;;;;5057325;28;20047;-70
2021/12/15 13:09:43;;;;;;;9.77;6.38;;;;;;;;;;5053499;28;20104;-70
2021/12/15 13:12:19;;;;;;;9.32;6.68;;;;;;;;;;5053816;28;20052;-71
2021/12/15 13:14:45;;;;;;;14.05;6.10;;;;;;;;;;5052641;28;20032;-71
2021/12/15 13:17:19;;;;;;;7.45;5.97;;;;;;;;;;5053782;28;20025;-71
2021/12/15 13:19:45;;;;;;;8.90;6.13;;;;;;;;;;5055954;28;20033;-71
2021/12/15 13:22:29;;;;;;;8.48;6.43;;;;;;;;;;5055253;28;20025;-71
2021/12/15 13:30:45;;;;;;;10.95;6.05;;;;;;;;;;5055986;28;20044;-72
2021/12/15 13:33:15;;;;;;;9.10;5.53;;;;;;;;;;5054481;28;20029;-71
2021/12/15 13:36:07;;;;;;;9.57;6.60;;;;;;;;;;5053422;28;20407;-72
2021/12/15 13:38:35;;;;;;;8.70;6.22;;;;;;;;;;5051463;28;20065;-72
2021/12/15 13:44:05;;;;;;;9.50;5.85;;;;;;;;;;5044677;28;20033;-73
2021/12/15 13:46:33;;;;;;;7.88;5.68;;;;;;;;;;5051755;28;20029;-72
2021/12/15 13:49:02;;;;;;;9.80;5.78;;;;;;;;;;5073004;28;20032;-72
2021/12/15 13:51:46;;;;;;;10.10;5.57;;;;;;;;;;5072983;28;20059;-71
2021/12/15 13:54:31;;;;;;;10.13;6.70;;;;;;;;;;5070426;28;20035;-72
2021/12/15 13:56:57;;;;;;;11.75;5.75;;;;;;;;;;5072532;28;20070;-73
2021/12/15 13:59:29;;;;;;;10.23;5.80;;;;;;;;;;5072829;28;20335;-72
2021/12/15 14:02:13;;;;;;;6.60;4.95;;;;;;;;;;5070057;28;20028;-72
2021/12/15 14:04:40;;;;;;;9.15;5.70;;;;;;;;;;5072383;28;20114;-72
2021/12/15 14:07:25;;;;;;;6.97;4.50;;;;;;;;;;5071445;28;20035;-71
2021/12/15 14:09:51;;;;;;;5.55;4.07;;;;;;;;;;5072206;28;20203;-72
2021/12/15 14:12:37;;;;;;;6.90;4.45;;;;;;;;;;5071450;28;20483;-71
2021/12/15 14:15:03;;;;;;;6.50;4.20;;;;;;;;;;5071062;28;20085;-72
2021/12/15 14:17:29;;;;;;;6.00;4.32;;;;;;;;;;5072651;28;20032;-72
2021/12/15 14:19:55;;;;;;;6.90;3.85;;;;;;;;;;5072515;28;20104;-72
2021/12/15 14:22:22;;;;;;;5.63;4.20;;;;;;;;;;5072009;28;20111;-71
2021/12/15 14:24:50;;;;;;;6.45;4.10;;;;;;;;;;5071263;28;20081;-71
2021/12/15 14:27:16;;;;;;;4.72;3.70;;;;;;;;;;5072162;28;20025;-72
2021/12/15 14:29:43;;;;;;;9.70;4.30;;;;;;;;;;5072490;28;20033;-71
2021/12/15 14:32:09;;;;;;;5.93;4.05;;;;;;;;;;5071899;28;20029;-72
2021/12/15 14:34:37;;;;;;;7.32;4.60;;;;;;;;;;5071139;28;20100;-71
2021/12/15 14:37:07;;;;;;;6.30;3.95;;;;;;;;;;5071887;28;20052;-71
2021/12/15 14:39:35;;;;;;;5.38;4.03;;;;;;;;;;5071679;28;20106;-71
2021/12/15 14:42:09;;;;;;;7.70;4.97;;;;;;;;;;5071724;28;20393;-71
2021/12/15 14:44:39;;;;;;;7.50;4.60;;;;;;;;;;5071805;28;20032;-71
2021/12/15 14:47:07;;;;;;;7.55;4.70;;;;;;;;;;5070413;28;20450;-73
2021/12/15 14:49:37;;;;;;;6.90;4.95;;;;;;;;;;5071617;28;20025;-72
2021/12/15 14:52:09;;;;;;;6.00;4.53;;;;;;;;;;5071639;28;20096;-72
2021/12/15 14:54:36;;;;;;;6.10;4.43;;;;;;;;;;5071086;28;20059;-71
2021/12/15 14:57:02;;;;;;;7.68;4.88;;;;;;;;;;5070178;28;20103;-71
2021/12/15 14:59:30;;;;;;;5.85;4.18;;;;;;;;;;5071427;28;20509;-70
2021/12/15 15:01:59;;;;;;;5.05;4.18;;;;;;;;;;5071515;28;20540;-71
2021/12/15 15:04:26;;;;;;;8.15;4.60;;;;;;;;;;5069342;28;20355;-71
2021/12/15 15:06:54;;;;;;;7.10;3.83;;;;;;;;;;5071431;28;20420;-72
2021/12/15 15:09:22;;;;;;;8.93;3.83;;;;;;;;;;5071748;28;20020;-72
2021/12/15 15:11:50;;;;;;;5.90;3.92;;;;;;;;;;5069798;28;20088;-69
2021/12/15 15:14:24;;;;;;;7.45;4.00;;;;;;;;;;5066912;28;20059;-72
2021/12/15 15:16:50;;;;;;;5.13;3.80;;;;;;;;;;5078117;22;21202;-74
2021/12/15 15:19:17;;;;;;;6.55;4.40;;;;;;;;;;5028848;28;20029;-72
2021/12/15 15:21:44;;;;;;;8.63;4.30;;;;;;;;;;5029680;28;20018;-72
2021/12/15 15:24:22;;;;;;;7.68;4.00;;;;;;;;;;5033919;28;20068;-73
2021/12/15 15:26:59;;;;;;;6.35;4.10;;;;;;;;;;5032945;28;20570;-72
2021/12/15 15:29:36;;;;;;;6.80;3.97;;;;;;;;;;5034286;28;20037;-71
2021/12/15 15:32:16;;;;;;;7.80;4.13;;;;;;;;;;5034611;28;20033;-71
2021/12/15 15:34:42;;;;;;;5.85;4.13;;;;;;;;;;5033244;28;20037;-72
2021/12/15 15:37:13;;;;;;;5.93;4.25;;;;;;;;;;5033868;28;20025;-72
2021/12/15 15:39:39;;;;;;;11.20;4.95;;;;;;;;;;5033633;28;20018;-72
2021/12/15 15:42:05;;;;;;;7.18;4.95;;;;;;;;;;5034026;28;20494;-71
2021/12/15 15:44:39;;;;;;;4.30;3.90;;;;;;;;;;5033424;28;20025;-71
2021/12/15 15:47:13;;;;;;;6.82;4.97;;;;;;;;;;5034279;28;20138;-70
2021/12/15 15:49:46;;;;;;;13.80;5.05;;;;;;;;;;5033956;28;20037;-72
2021/12/15 15:52:12;;;;;;;5.72;4.30;;;;;;;;;;5033267;28;20029;-71
2021/12/15 15:54:38;;;;;;;5.47;4.15;;;;;;;;;;5033017;28;20040;-71
2021/12/15 15:57:06;;;;;;;6.43;4.30;;;;;;;;;;5032287;28;20432;-71
2021/12/15 15:59:32;;;;;;;5.53;4.57;;;;;;;;;;5034123;28;20030;-73
2021/12/15 16:02:00;;;;;;;8.93;4.70;;;;;;;;;;5033608;28;20033;-72
2021/12/15 16:04:28;;;;;;;4.95;4.05;;;;;;;;;;5033949;28;20033;-72
2021/12/15 16:06:54;;;;;;;7.50;5.55;;;;;;;;;;5034914;28;20038;-71
2021/12/15 16:09:21;;;;;;;8.65;4.63;;;;;;;;;;5033465;28;20029;-72
2021/12/15 16:11:51;;;;;;;4.88;4.25;;;;;;;;;;5033576;28;20025;-72